Time;durP1;ratioP1;P1;durP2;ratioP2;P2;SDS_P1;SDS_P2;PMS_P1;PMS_P2;Temp;Humidity;BMP_temperature;BMP_pressure;BME280_temperature;BME280_humidity;BME280_pressure;Samples;Min_cycle;Max_cycle;Signal;HPM_P1;HPM_P2
2022/03/08 00:00:12;;;;;;;7.80;6.80;;;3.00;99.90;;;;;;4915722;29;20479;-66
2022/03/08 00:02:41;;;;;;;8.30;6.20;;;2.80;99.90;;;;;;4915970;29;20491;-65
2022/03/08 00:05:11;;;;;;;8.27;5.97;;;2.70;99.90;;;;;;4915511;29;20554;-66
2022/03/08 00:07:39;;;;;;;9.23;6.20;;;2.40;99.90;;;;;;4921009;29;20519;-66
2022/03/08 00:10:09;;;;;;;7.70;5.60;;;2.20;99.90;;;;;;4934496;29;20487;-66
2022/03/08 00:12:37;;;;;;;8.07;5.40;;;2.20;99.90;;;;;;4934641;29;20889;-66
2022/03/08 00:15:08;;;;;;;8.33;5.37;;;2.30;99.90;;;;;;4934269;29;20481;-65
2022/03/08 00:17:36;;;;;;;8.83;6.97;;;2.60;99.90;;;;;;4934192;29;20560;-65
2022/03/08 00:20:06;;;;;;;7.67;5.40;;;2.50;99.90;;;;;;4932668;29;21043;-66
2022/03/08 00:22:37;;;;;;;7.07;5.30;;;2.60;99.90;;;;;;4918868;29;20480;-66
2022/03/08 00:25:06;;;;;;;6.73;5.00;;;2.60;99.90;;;;;;4915267;29;20886;-66
2022/03/08 00:27:36;;;;;;;6.77;5.60;;;2.70;99.90;;;;;;4921344;29;20558;-65
2022/03/08 00:30:05;;;;;;;6.47;5.13;;;2.70;99.90;;;;;;4933090;29;20480;-65
2022/03/08 00:32:33;;;;;;;7.07;5.80;;;2.70;99.90;;;;;;4934372;29;20547;-66
2022/03/08 00:35:01;;;;;;;9.13;6.40;;;2.70;99.90;;;;;;4934085;29;21006;-65
2022/03/08 00:37:29;;;;;;;7.20;5.70;;;2.30;99.90;;;;;;4933990;29;20560;-64
2022/03/08 00:39:59;;;;;;;7.20;5.37;;;2.20;99.90;;;;;;4934475;29;20480;-66
2022/03/08 00:42:27;;;;;;;5.20;4.27;;;2.00;99.90;;;;;;4911422;29;20983;-66
2022/03/08 00:44:55;;;;;;;7.50;4.80;;;2.10;99.90;;;;;;4915122;29;20547;-66
2022/03/08 00:47:25;;;;;;;6.90;5.07;;;2.30;99.90;;;;;;4919862;29;20488;-66
2022/03/08 00:49:53;;;;;;;7.17;4.70;;;2.40;99.90;;;;;;4933807;29;21122;-66
2022/03/08 00:52:22;;;;;;;5.70;4.17;;;2.40;99.90;;;;;;4930838;29;20483;-66
2022/03/08 00:54:50;;;;;;;4.87;4.37;;;2.60;99.90;;;;;;4914549;29;20526;-66
2022/03/08 00:57:19;;;;;;;5.40;4.30;;;2.70;99.90;;;;;;4897783;29;20513;-65
2022/03/08 00:59:48;;;;;;;6.63;4.43;;;2.60;99.90;;;;;;4914772;29;21027;-66
2022/03/08 01:02:16;;;;;;;5.30;3.97;;;2.70;99.90;;;;;;4914851;29;20986;-66
2022/03/08 01:04:44;;;;;;;5.53;3.80;;;2.70;99.90;;;;;;4913591;29;20491;-66
2022/03/08 01:07:14;;;;;;;4.87;4.17;;;2.70;99.90;;;;;;4914099;29;20478;-65
2022/03/08 01:09:42;;;;;;;5.47;3.50;;;2.50;99.90;;;;;;4914472;29;20489;-66
2022/03/08 01:12:11;;;;;;;4.13;3.70;;;2.40;99.90;;;;;;4914529;29;20473;-66
2022/03/08 01:14:40;;;;;;;5.13;4.00;;;2.40;99.90;;;;;;4897784;29;20972;-66
2022/03/08 01:17:08;;;;;;;6.87;3.87;;;2.30;99.90;;;;;;4914201;29;20481;-66
2022/03/08 01:19:37;;;;;;;5.47;4.20;;;2.50;99.90;;;;;;4914281;29;20827;-65
2022/03/08 01:22:05;;;;;;;5.67;4.33;;;2.50;99.90;;;;;;4919943;29;21013;-65
2022/03/08 01:24:33;;;;;;;4.90;4.03;;;2.30;99.90;;;;;;4897585;29;20481;-65
2022/03/08 01:27:01;;;;;;;4.87;4.03;;;2.40;99.90;;;;;;4916074;29;20493;-66
2022/03/08 01:29:29;;;;;;;4.97;4.13;;;2.40;99.90;;;;;;4933476;29;20492;-65
2022/03/08 01:32:01;;;;;;;6.27;4.23;;;2.30;99.90;;;;;;4933309;29;20511;-65
2022/03/08 01:34:29;;;;;;;4.70;4.00;;;2.00;99.90;;;;;;4933906;29;20513;-66
2022/03/08 01:36:57;;;;;;;6.07;4.00;;;2.00;99.90;;;;;;4933286;29;20486;-66
2022/03/08 01:39:25;;;;;;;6.47;4.80;;;1.90;99.90;;;;;;4933413;29;20504;-66
2022/03/08 01:41:54;;;;;;;5.87;3.87;;;1.80;99.90;;;;;;4931708;29;20839;-65
2022/03/08 01:44:23;;;;;;;5.93;4.10;;;1.80;99.90;;;;;;4914259;29;20461;-66
2022/03/08 01:46:52;;;;;;;5.33;3.53;;;1.60;99.90;;;;;;4914152;29;20485;-66
2022/03/08 01:49:21;;;;;;;4.30;3.60;;;1.90;99.90;;;;;;4914164;29;20483;-66
2022/03/08 01:51:49;;;;;;;6.00;4.53;;;2.10;99.90;;;;;;4914078;29;20476;-65
2022/03/08 01:54:17;;;;;;;6.07;4.40;;;2.10;99.90;;;;;;4913904;29;20470;-65
2022/03/08 01:56:45;;;;;;;4.70;4.00;;;2.20;99.90;;;;;;4914043;29;20561;-65
2022/03/08 01:59:13;;;;;;;6.97;3.97;;;2.10;99.90;;;;;;4913848;29;20509;-66
2022/03/08 02:01:41;;;;;;;5.47;4.03;;;2.20;99.90;;;;;;4914198;29;20985;-66
2022/03/08 02:04:12;;;;;;;5.00;3.90;;;2.20;99.90;;;;;;4913752;29;20461;-66
2022/03/08 02:06:41;;;;;;;5.60;3.93;;;2.20;99.90;;;;;;4914171;29;20507;-66
2022/03/08 02:09:09;;;;;;;4.63;3.77;;;1.80;99.90;;;;;;4932197;29;20559;-65
2022/03/08 02:11:38;;;;;;;4.27;3.73;;;1.90;99.90;;;;;;4933096;29;20473;-65
2022/03/08 02:14:06;;;;;;;5.43;4.03;;;2.00;99.90;;;;;;4915180;29;20471;-66
2022/03/08 02:16:34;;;;;;;6.10;4.67;;;2.00;99.90;;;;;;4914106;29;20537;-65
2022/03/08 02:19:03;;;;;;;5.03;3.70;;;2.20;99.90;;;;;;4913813;29;20476;-65
2022/03/08 02:21:35;;;;;;;4.53;3.90;;;2.10;99.90;;;;;;4913830;29;20529;-64
2022/03/08 02:24:04;;;;;;;5.23;4.00;;;2.10;99.90;;;;;;4914576;29;20562;-65
2022/03/08 02:26:32;;;;;;;4.20;3.60;;;2.20;99.90;;;;;;4913868;29;20544;-65
2022/03/08 02:29:01;;;;;;;6.57;4.10;;;2.30;99.90;;;;;;4914254;29;20534;-66
2022/03/08 02:31:29;;;;;;;4.53;3.93;;;1.90;99.90;;;;;;4915582;29;21039;-66
2022/03/08 02:33:57;;;;;;;5.03;3.83;;;2.00;99.90;;;;;;4923152;29;20543;-66
2022/03/08 02:36:26;;;;;;;6.43;4.50;;;2.00;99.90;;;;;;4918798;29;20464;-66
2022/03/08 02:38:55;;;;;;;5.67;4.23;;;1.90;99.90;;;;;;4917186;29;20982;-66
2022/03/08 02:41:24;;;;;;;6.10;3.77;;;1.90;99.90;;;;;;4917144;29;20822;-66
2022/03/08 02:43:52;;;;;;;5.53;4.33;;;1.90;99.90;;;;;;4917420;29;20468;-65
2022/03/08 02:46:20;;;;;;;5.70;4.57;;;2.00;99.90;;;;;;4917110;29;21005;-65
2022/03/08 02:48:49;;;;;;;5.60;4.47;;;1.90;99.90;;;;;;4917112;29;21085;-66
2022/03/08 02:51:17;;;;;;;4.83;3.67;;;1.70;99.90;;;;;;4917074;29;20556;-66
2022/03/08 02:53:45;;;;;;;5.67;4.67;;;1.80;99.90;;;;;;4916510;29;20487;-66
2022/03/08 02:56:15;;;;;;;5.33;4.37;;;1.80;99.90;;;;;;4916976;29;21020;-65
2022/03/08 02:58:45;;;;;;;6.13;4.40;;;1.80;99.90;;;;;;4916796;29;20557;-66
2022/03/08 03:01:13;;;;;;;5.87;4.10;;;1.70;99.90;;;;;;4917021;29;20970;-65
2022/03/08 03:03:42;;;;;;;8.20;5.37;;;1.80;99.90;;;;;;4917355;29;20485;-66
2022/03/08 03:06:10;;;;;;;8.30;4.83;;;2.00;99.90;;;;;;4916869;29;20481;-66
2022/03/08 03:08:38;;;;;;;7.10;4.53;;;1.80;99.90;;;;;;4930671;29;20479;-66
2022/03/08 03:11:06;;;;;;;8.50;5.30;;;1.70;99.90;;;;;;4918906;29;20517;-66
2022/03/08 03:13:36;;;;;;;7.93;5.50;;;1.50;99.90;;;;;;4935712;29;20476;-65
2022/03/08 03:16:04;;;;;;;7.27;4.63;;;1.30;99.90;;;;;;4935669;29;20468;-65
2022/03/08 03:18:33;;;;;;;9.83;5.63;;;1.50;99.90;;;;;;4921852;29;20477;-65
2022/03/08 03:21:01;;;;;;;7.30;5.00;;;1.30;99.90;;;;;;4916517;29;20480;-65
2022/03/08 03:23:29;;;;;;;5.20;4.30;;;1.00;99.90;;;;;;4920702;29;20481;-66
2022/03/08 03:25:57;;;;;;;6.70;4.30;;;1.00;99.90;;;;;;4916567;29;20480;-65
2022/03/08 03:28:26;;;;;;;5.87;4.20;;;1.30;99.90;;;;;;4929378;29;20849;-66
2022/03/08 03:30:55;;;;;;;5.60;4.70;;;1.50;99.90;;;;;;4935549;29;20989;-65
2022/03/08 03:33:24;;;;;;;6.40;4.27;;;1.30;99.90;;;;;;4935316;29;20461;-66
2022/03/08 03:35:52;;;;;;;5.00;4.00;;;1.40;99.90;;;;;;4935133;29;20828;-66
2022/03/08 03:38:20;;;;;;;5.40;4.30;;;1.50;99.90;;;;;;4935153;29;20505;-66
2022/03/08 03:40:48;;;;;;;7.77;4.83;;;1.50;99.90;;;;;;4935424;29;20515;-66
2022/03/08 03:43:16;;;;;;;4.23;3.60;;;1.20;99.90;;;;;;4921411;29;20837;-66
2022/03/08 03:45:44;;;;;;;7.23;4.30;;;1.50;99.90;;;;;;4916079;29;20527;-66
2022/03/08 03:48:14;;;;;;;5.83;3.80;;;1.30;99.90;;;;;;4926876;29;20481;-66
2022/03/08 03:50:42;;;;;;;3.87;3.47;;;0.90;99.90;;;;;;4935004;29;20514;-65
2022/03/08 03:53:10;;;;;;;5.27;3.50;;;1.30;99.90;;;;;;4925449;29;20477;-65
2022/03/08 03:55:38;;;;;;;4.60;3.40;;;1.30;99.90;;;;;;4908082;29;20994;-65
2022/03/08 03:58:06;;;;;;;7.40;3.83;;;1.40;99.90;;;;;;4915837;29;20479;-65
2022/03/08 04:00:38;;;;;;;5.87;4.50;;;1.50;99.90;;;;;;4919414;29;20550;-65
2022/03/08 04:03:06;;;;;;;4.73;3.73;;;1.40;99.90;;;;;;4911963;29;20470;-65
2022/03/08 04:05:36;;;;;;;4.47;3.40;;;1.40;99.90;;;;;;4915627;29;20496;-66
2022/03/08 04:08:04;;;;;;;4.83;4.17;;;1.40;99.90;;;;;;4925141;29;20500;-66
2022/03/08 04:10:32;;;;;;;4.77;3.73;;;1.50;99.90;;;;;;4934653;29;20992;-65
2022/03/08 04:13:00;;;;;;;4.73;3.97;;;1.50;99.90;;;;;;4925735;29;20480;-66
2022/03/08 04:15:28;;;;;;;4.17;3.67;;;1.70;99.90;;;;;;4915803;29;20473;-66
2022/03/08 04:17:56;;;;;;;4.47;3.90;;;1.40;99.90;;;;;;4915686;29;20506;-66
2022/03/08 04:20:24;;;;;;;4.10;3.30;;;1.40;99.90;;;;;;4915809;29;20657;-66
2022/03/08 04:22:55;;;;;;;4.90;4.27;;;1.50;99.90;;;;;;4915856;29;20470;-65
2022/03/08 04:25:23;;;;;;;5.00;3.50;;;1.40;99.90;;;;;;4915749;29;20477;-66
2022/03/08 04:27:51;;;;;;;5.10;3.43;;;1.30;99.90;;;;;;4923462;29;20479;-65
2022/03/08 04:30:20;;;;;;;4.50;3.87;;;1.50;99.90;;;;;;4934165;29;20535;-66
2022/03/08 04:32:50;;;;;;;4.27;3.37;;;1.40;99.90;;;;;;4926522;29;20482;-65
2022/03/08 04:35:19;;;;;;;4.87;3.73;;;1.50;99.90;;;;;;4915272;29;20516;-66
2022/03/08 04:37:47;;;;;;;5.90;3.70;;;1.60;99.90;;;;;;4915093;29;20506;-66
2022/03/08 04:40:17;;;;;;;3.73;3.37;;;1.50;99.90;;;;;;4898361;29;20477;-65
2022/03/08 04:42:46;;;;;;;4.90;3.90;;;1.50;99.90;;;;;;4914986;29;20555;-66
2022/03/08 04:45:15;;;;;;;6.17;3.83;;;1.40;99.90;;;;;;4915032;29;20888;-66
2022/03/08 04:47:43;;;;;;;4.90;3.50;;;1.60;99.90;;;;;;4922041;29;20999;-65
2022/03/08 04:50:16;;;;;;;6.33;4.27;;;1.50;99.90;;;;;;4933743;29;20539;-65
2022/03/08 04:52:46;;;;;;;5.23;3.87;;;1.60;99.90;;;;;;4927968;29;20532;-65
2022/03/08 04:55:19;;;;;;;5.37;4.00;;;1.50;99.90;;;;;;4913475;29;20839;-66
2022/03/08 04:57:47;;;;;;;5.00;4.07;;;1.70;99.90;;;;;;4922248;29;20528;-66
2022/03/08 05:00:17;;;;;;;14.73;4.57;;;1.40;99.90;;;;;;4933973;29;20495;-65
2022/03/08 05:02:46;;;;;;;4.70;3.97;;;1.40;99.90;;;;;;4925198;29;20537;-66
2022/03/08 05:05:15;;;;;;;7.17;3.60;;;1.30;99.90;;;;;;4914742;29;21083;-65
2022/03/08 05:07:43;;;;;;;4.43;4.03;;;1.30;99.90;;;;;;4921436;29;20579;-65
2022/03/08 05:10:13;;;;;;;5.83;3.70;;;1.20;99.90;;;;;;4933516;29;20491;-66
2022/03/08 05:12:43;;;;;;;5.37;3.80;;;1.20;99.90;;;;;;4933680;29;20500;-66
2022/03/08 05:15:12;;;;;;;3.93;3.17;;;1.10;99.90;;;;;;4929520;29;20480;-66
2022/03/08 05:17:40;;;;;;;5.60;4.20;;;1.30;99.90;;;;;;4921650;29;20521;-66
2022/03/08 05:20:09;;;;;;;4.13;3.60;;;1.20;99.90;;;;;;4914601;29;20479;-66
2022/03/08 05:22:37;;;;;;;4.20;3.60;;;1.10;99.90;;;;;;4914815;29;20992;-66
2022/03/08 05:25:06;;;;;;;6.50;4.23;;;1.00;99.90;;;;;;4914706;29;20469;-66
2022/03/08 05:27:34;;;;;;;11.67;4.70;;;1.10;99.90;;;;;;4920505;29;20881;-66
2022/03/08 05:30:05;;;;;;;8.40;5.40;;;1.50;99.90;;;;;;4933351;29;20551;-65
2022/03/08 05:32:33;;;;;;;9.33;5.20;;;1.70;99.90;;;;;;4928222;29;20504;-65
2022/03/08 05:35:01;;;;;;;10.30;5.20;;;1.60;99.90;;;;;;4914167;29;20894;-65
2022/03/08 05:37:29;;;;;;;10.30;5.27;;;1.30;99.90;;;;;;4914695;29;20475;-63
2022/03/08 05:39:57;;;;;;;10.23;6.60;;;1.20;99.90;;;;;;4914686;29;20477;-63
2022/03/08 05:42:26;;;;;;;10.20;7.67;;;1.20;99.90;;;;;;4914624;29;20526;-63
2022/03/08 05:44:54;;;;;;;10.17;6.50;;;1.20;99.90;;;;;;4914551;29;20803;-63
2022/03/08 05:47:24;;;;;;;12.30;7.17;;;0.90;99.90;;;;;;4918733;29;20554;-66
2022/03/08 05:49:52;;;;;;;9.57;6.47;;;0.80;99.90;;;;;;4933492;29;20496;-66
2022/03/08 05:52:20;;;;;;;15.37;7.47;;;0.80;99.90;;;;;;4927492;29;20487;-65
2022/03/08 05:54:48;;;;;;;12.87;7.60;;;0.90;99.90;;;;;;4914126;29;20499;-66
2022/03/08 05:57:16;;;;;;;12.03;7.20;;;1.10;99.90;;;;;;4917629;29;20478;-66
2022/03/08 05:59:44;;;;;;;10.47;7.30;;;1.00;99.90;;;;;;4933184;29;20876;-66
2022/03/08 06:02:12;;;;;;;10.67;7.90;;;1.00;99.90;;;;;;4928885;29;20472;-66
2022/03/08 06:04:42;;;;;;;12.83;6.93;;;1.10;99.90;;;;;;4913125;29;20837;-65
2022/03/08 06:07:11;;;;;;;9.07;6.40;;;0.80;99.90;;;;;;4919333;29;20483;-65
2022/03/08 06:09:39;;;;;;;8.63;5.40;;;0.50;99.90;;;;;;4928800;29;20583;-65
2022/03/08 06:12:09;;;;;;;9.23;5.87;;;0.90;99.90;;;;;;4917285;29;20564;-65
2022/03/08 06:14:38;;;;;;;12.70;6.60;;;1.10;99.90;;;;;;4909920;29;20489;-66
2022/03/08 06:17:06;;;;;;;8.40;5.23;;;0.70;99.90;;;;;;4919646;29;20478;-66
2022/03/08 06:19:35;;;;;;;9.20;5.67;;;0.90;99.90;;;;;;4936575;29;20555;-66
2022/03/08 06:22:05;;;;;;;12.43;6.50;;;1.20;99.90;;;;;;4930273;29;21434;-65
2022/03/08 06:24:34;;;;;;;13.47;6.53;;;1.40;99.90;;;;;;4917460;29;20517;-65
2022/03/08 06:27:02;;;;;;;11.17;6.80;;;1.70;99.90;;;;;;4917143;29;21048;-65
2022/03/08 06:29:30;;;;;;;13.07;6.30;;;1.70;99.90;;;;;;4917907;29;20523;-66
2022/03/08 06:31:58;;;;;;;13.87;7.97;;;1.60;99.90;;;;;;4917455;29;20809;-66
2022/03/08 06:34:26;;;;;;;18.47;9.17;;;1.80;99.90;;;;;;4917294;29;20477;-65
2022/03/08 06:36:54;;;;;;;11.37;7.03;;;2.10;99.90;;;;;;4916574;29;20552;-65
2022/03/08 06:39:24;;;;;;;14.43;7.80;;;2.10;99.90;;;;;;4915625;29;20939;-66
2022/03/08 06:41:52;;;;;;;13.47;6.93;;;2.10;99.90;;;;;;4917104;29;20830;-65
2022/03/08 06:44:20;;;;;;;11.57;6.77;;;1.90;99.90;;;;;;4898746;29;20990;-66
2022/03/08 06:46:48;;;;;;;11.87;6.83;;;1.90;99.90;;;;;;4915311;29;20477;-65
2022/03/08 06:49:17;;;;;;;13.33;6.67;;;2.10;99.90;;;;;;4912876;29;20479;-66
2022/03/08 06:51:45;;;;;;;14.20;7.40;;;2.40;99.90;;;;;;4916436;29;20481;-66
2022/03/08 06:54:18;;;;;;;15.07;10.20;;;2.50;99.90;;;;;;4914383;29;20532;-65
2022/03/08 06:56:48;;;;;;;11.17;8.10;;;2.70;99.90;;;;;;4916803;29;20519;-66
2022/03/08 06:59:16;;;;;;;10.10;7.97;;;2.40;99.90;;;;;;4926350;29;20477;-66
2022/03/08 07:01:44;;;;;;;10.87;6.17;;;2.10;99.90;;;;;;4935611;29;21024;-66
2022/03/08 07:04:12;;;;;;;10.60;7.40;;;1.90;99.90;;;;;;4917205;29;20519;-65
2022/03/08 07:06:47;;;;;;;10.70;6.77;;;2.10;99.90;;;;;;4917063;29;20493;-66
2022/03/08 07:09:15;;;;;;;10.40;6.10;;;2.10;99.90;;;;;;4932042;29;20478;-65
2022/03/08 07:11:44;;;;;;;7.47;5.80;;;2.10;99.90;;;;;;4916723;29;20544;-65
2022/03/08 07:14:15;;;;;;;12.43;6.33;;;2.20;99.90;;;;;;4916606;29;20469;-65
2022/03/08 07:16:43;;;;;;;11.57;5.90;;;2.50;99.90;;;;;;4916677;29;20485;-65
2022/03/08 07:19:13;;;;;;;9.00;5.77;;;2.60;99.90;;;;;;4916253;29;20481;-66
2022/03/08 07:21:41;;;;;;;8.23;5.40;;;2.70;99.90;;;;;;4916684;29;20472;-65
2022/03/08 07:24:10;;;;;;;9.63;5.63;;;3.00;99.90;;;;;;4916277;29;20519;-65
2022/03/08 07:26:38;;;;;;;7.93;5.27;;;3.10;99.90;;;;;;4916561;29;20468;-65
2022/03/08 07:29:06;;;;;;;7.03;4.57;;;3.10;99.90;;;;;;4934247;29;20984;-65
2022/03/08 07:31:36;;;;;;;6.60;4.97;;;3.20;99.90;;;;;;4935565;29;20484;-63
2022/03/08 07:34:04;;;;;;;7.07;4.40;;;3.30;99.90;;;;;;4923055;29;20557;-63
2022/03/08 07:36:32;;;;;;;5.70;4.07;;;3.40;99.90;;;;;;4935451;29;20491;-62
2022/03/08 07:39:00;;;;;;;4.80;3.90;;;3.50;99.90;;;;;;4918504;29;20551;-63
2022/03/08 07:41:29;;;;;;;5.00;3.97;;;3.70;99.90;;;;;;4916627;29;20477;-63
2022/03/08 07:43:57;;;;;;;5.90;4.30;;;3.90;99.90;;;;;;4916453;29;20512;-65
2022/03/08 07:46:25;;;;;;;6.87;4.37;;;4.00;99.90;;;;;;4916358;29;20484;-65
2022/03/08 07:48:55;;;;;;;4.80;4.07;;;4.20;99.90;;;;;;4916223;29;20825;-65
2022/03/08 07:51:43;;;;;;;9.97;4.10;;;4.30;99.90;;;;;;4915448;29;20473;-65
2022/03/08 07:54:12;;;;;;;6.27;3.90;;;4.60;99.90;;;;;;4916830;29;20480;-65
2022/03/08 07:56:40;;;;;;;4.50;3.70;;;4.70;99.90;;;;;;4915636;29;20486;-65
2022/03/08 07:59:09;;;;;;;5.17;3.30;;;4.90;99.90;;;;;;4915692;29;21016;-65
2022/03/08 08:01:37;;;;;;;3.93;3.53;;;5.20;99.90;;;;;;4915727;29;20511;-64
2022/03/08 08:04:06;;;;;;;6.53;3.63;;;5.30;99.90;;;;;;4933568;29;20470;-64
2022/03/08 08:06:35;;;;;;;6.10;3.20;;;5.50;99.90;;;;;;4934814;29;20487;-64
2022/03/08 08:09:04;;;;;;;4.67;3.23;;;5.80;99.90;;;;;;4934316;29;20479;-64
2022/03/08 08:11:32;;;;;;;6.50;3.20;;;6.10;99.90;;;;;;4934497;29;20518;-63
2022/03/08 08:14:00;;;;;;;5.10;3.43;;;6.30;99.90;;;;;;4917451;29;20571;-64
2022/03/08 08:16:28;;;;;;;6.00;3.20;;;6.60;99.90;;;;;;4915510;29;20488;-64
2022/03/08 08:18:58;;;;;;;6.20;3.20;;;6.80;99.90;;;;;;4918499;29;20456;-64
2022/03/08 08:21:28;;;;;;;6.30;3.97;;;7.00;99.90;;;;;;4915349;29;20292;-64
2022/03/08 08:23:56;;;;;;;7.13;3.03;;;7.30;99.90;;;;;;4915616;29;21415;-64
2022/03/08 08:26:25;;;;;;;7.80;3.60;;;7.40;99.90;;;;;;4915403;29;20779;-64
2022/03/08 08:28:53;;;;;;;5.80;2.63;;;7.50;99.90;;;;;;4914787;29;20228;-64
2022/03/08 08:31:21;;;;;;;5.43;3.10;;;7.60;99.90;;;;;;4915368;29;20244;-64
2022/03/08 08:33:49;;;;;;;4.67;2.80;;;7.80;99.90;;;;;;4928973;29;20319;-64
2022/03/08 08:36:18;;;;;;;5.47;2.50;;;8.10;99.90;;;;;;4933054;29;20650;-64
2022/03/08 08:38:47;;;;;;;8.00;2.93;;;8.20;99.90;;;;;;4915189;29;20292;-64
2022/03/08 08:41:15;;;;;;;5.87;2.70;;;8.40;99.90;;;;;;4915349;29;20238;-64
2022/03/08 08:43:43;;;;;;;5.77;2.87;;;8.50;99.90;;;;;;4929837;29;20263;-64
2022/03/08 08:46:11;;;;;;;3.57;2.53;;;8.70;99.90;;;;;;4927307;29;20228;-64
2022/03/08 08:48:39;;;;;;;3.70;2.80;;;8.90;99.90;;;;;;4929100;29;20236;-64
2022/03/08 08:51:07;;;;;;;2.90;2.60;;;9.10;99.90;;;;;;4934168;29;20235;-62
2022/03/08 08:53:36;;;;;;;4.37;3.10;;;9.20;99.90;;;;;;4933800;29;20228;-61
2022/03/08 08:56:06;;;;;;;3.37;2.90;;;9.40;99.90;;;;;;4934000;29;20314;-62
2022/03/08 08:58:34;;;;;;;3.67;3.00;;;9.60;99.90;;;;;;4924111;29;20316;-62
2022/03/08 09:01:02;;;;;;;3.57;2.93;;;9.70;99.90;;;;;;4914591;29;20229;-61
2022/03/08 09:03:31;;;;;;;6.27;3.13;;;9.80;99.90;;;;;;4914981;29;20233;-61
2022/03/08 09:05:59;;;;;;;5.47;3.10;;;9.90;99.90;;;;;;4915238;29;20232;-62
2022/03/08 09:08:28;;;;;;;8.77;3.20;;;9.90;99.90;;;;;;4914630;29;20712;-62
2022/03/08 09:10:59;;;;;;;7.20;3.30;;;10.10;99.90;;;;;;4914768;29;20257;-62
2022/03/08 09:13:29;;;;;;;10.07;3.30;;;10.20;99.90;;;;;;4914869;29;20634;-61
2022/03/08 09:15:58;;;;;;;6.33;3.30;;;10.00;99.90;;;;;;4914981;29;20268;-62
2022/03/08 09:18:26;;;;;;;4.70;2.80;;;10.00;99.90;;;;;;4914731;29;20249;-61
2022/03/08 09:20:56;;;;;;;5.60;3.23;;;10.40;99.90;;;;;;4914654;29;20234;-61
2022/03/08 09:23:24;;;;;;;6.33;3.00;;;10.70;99.90;;;;;;4914476;29;20263;-61
2022/03/08 09:25:53;;;;;;;5.50;3.33;;;10.90;99.90;;;;;;4914627;29;20254;-61
2022/03/08 09:28:21;;;;;;;5.33;3.13;;;10.90;99.90;;;;;;4914490;29;20276;-61
2022/03/08 09:30:50;;;;;;;12.77;3.60;;;11.10;99.90;;;;;;4914618;29;20244;-61
2022/03/08 09:33:19;;;;;;;3.13;2.70;;;11.20;99.90;;;;;;4914316;29;20241;-61
2022/03/08 09:35:47;;;;;;;3.57;2.40;;;11.40;99.90;;;;;;4914493;29;20232;-61
2022/03/08 09:38:15;;;;;;;3.37;2.67;;;11.40;99.90;;;;;;4917426;29;20248;-61
2022/03/08 09:40:43;;;;;;;5.77;3.13;;;11.60;99.90;;;;;;4915065;29;20328;-61
2022/03/08 09:43:12;;;;;;;4.43;2.60;;;11.70;99.90;;;;;;4918233;29;20306;-61
2022/03/08 09:45:40;;;;;;;4.27;2.53;;;11.80;99.90;;;;;;4918266;29;20659;-61
2022/03/08 09:48:09;;;;;;;2.83;2.23;;;11.80;99.90;;;;;;4928238;29;20273;-61
2022/03/08 09:50:38;;;;;;;3.93;2.47;;;11.90;99.90;;;;;;4937182;29;20323;-61
2022/03/08 09:53:06;;;;;;;4.33;2.30;;;12.10;99.90;;;;;;4927341;29;20350;-61
2022/03/08 09:55:34;;;;;;;3.30;2.10;;;12.20;99.90;;;;;;4918560;29;20324;-61
2022/03/08 09:58:02;;;;;;;4.10;2.30;;;12.30;99.90;;;;;;4927573;29;20293;-61
2022/03/08 10:00:32;;;;;;;3.47;2.13;;;12.20;99.90;;;;;;4931484;29;20240;-61
2022/03/08 10:03:01;;;;;;;2.60;2.37;;;12.30;99.90;;;;;;4918079;29;20296;-62
2022/03/08 10:05:37;;;;;;;3.67;2.13;;;12.60;99.90;;;;;;4917939;29;20262;-62
2022/03/08 10:08:10;;;;;;;3.10;2.30;;;12.60;99.90;;;;;;4908297;29;20253;-62
2022/03/08 10:10:47;;;;;;;3.13;2.47;;;12.90;99.90;;;;;;4917877;29;20274;-61
2022/03/08 10:13:42;;;;;;;5.40;2.60;;;13.00;99.90;;;;;;4917548;29;20253;-61
2022/03/08 10:16:16;;;;;;;3.60;2.53;;;13.10;99.90;;;;;;4917634;29;20599;-61
2022/03/08 10:18:46;;;;;;;3.30;2.20;;;13.00;99.90;;;;;;4919880;29;20243;-61
2022/03/08 10:21:33;;;;;;;3.33;2.20;;;13.00;99.90;;;;;;4917519;29;20590;-61
2022/03/08 10:24:03;;;;;;;3.47;2.23;;;13.20;99.90;;;;;;4917362;29;20236;-61
2022/03/08 10:26:42;;;;;;;4.23;2.50;;;13.30;99.90;;;;;;4917451;29;20234;-61
2022/03/08 10:29:10;;;;;;;3.93;2.47;;;13.40;99.90;;;;;;4917462;29;20271;-61
2022/03/08 10:31:38;;;;;;;2.73;1.90;;;13.60;99.90;;;;;;4917378;29;20243;-61
2022/03/08 10:34:09;;;;;;;2.70;2.20;;;13.60;99.90;;;;;;4927782;29;20244;-62
2022/03/08 10:36:42;;;;;;;2.37;2.00;;;13.70;99.90;;;;;;4917062;29;20235;-61
2022/03/08 10:39:17;;;;;;;4.13;2.20;;;13.80;99.90;;;;;;4917108;29;20243;-61
2022/03/08 10:41:51;;;;;;;4.17;2.13;;;13.80;99.90;;;;;;4917527;29;20250;-61
2022/03/08 10:44:35;;;;;;;3.27;1.97;;;13.80;99.90;;;;;;4898513;29;20286;-62
2022/03/08 10:47:07;;;;;;;3.90;2.10;;;13.70;99.90;;;;;;4911344;29;20243;-61
2022/03/08 10:49:36;;;;;;;2.30;1.80;;;13.90;99.90;;;;;;4917037;29;20262;-61
2022/03/08 10:52:07;;;;;;;3.43;1.70;;;14.00;99.90;;;;;;4916558;29;20243;-61
2022/03/08 10:54:35;;;;;;;3.87;2.00;;;14.00;99.90;;;;;;4917081;29;20735;-61
2022/03/08 10:57:03;;;;;;;2.57;1.60;;;14.10;99.90;;;;;;4918836;29;20247;-61
2022/03/08 10:59:31;;;;;;;1.73;1.50;;;13.90;99.90;;;;;;4936505;29;20232;-61
2022/03/08 11:02:19;;;;;;;3.00;2.07;;;13.50;99.90;;;;;;4934327;29;20246;-61
2022/03/08 11:04:48;;;;;;;2.40;1.70;;;13.80;99.90;;;;;;4910116;29;20251;-61
2022/03/08 11:07:17;;;;;;;1.87;1.57;;;14.10;99.90;;;;;;4919936;29;20237;-61
2022/03/08 11:09:47;;;;;;;2.23;1.80;;;14.30;99.90;;;;;;4935890;29;20246;-61
2022/03/08 11:12:16;;;;;;;3.37;2.40;;;14.50;99.90;;;;;;4924568;29;20235;-61
2022/03/08 11:14:44;;;;;;;2.90;1.80;;;14.60;99.90;;;;;;4916067;29;20252;-61
2022/03/08 11:17:12;;;;;;;2.10;1.70;;;14.30;99.90;;;;;;4919388;29;20244;-61
2022/03/08 11:19:41;;;;;;;2.30;1.90;;;14.10;99.90;;;;;;4916650;29;20240;-61
2022/03/08 11:22:09;;;;;;;3.03;1.90;;;13.90;99.90;;;;;;4920535;29;20253;-61
2022/03/08 11:24:39;;;;;;;3.10;2.20;;;13.70;99.90;;;;;;4916653;29;20926;-61
2022/03/08 11:27:07;;;;;;;2.70;2.00;;;13.60;99.90;;;;;;4918200;29;20258;-61
2022/03/08 11:29:36;;;;;;;3.53;1.90;;;13.60;99.90;;;;;;4929080;29;20228;-61
2022/03/08 11:32:07;;;;;;;1.60;1.30;;;14.00;99.90;;;;;;4913581;29;20324;-61
2022/03/08 11:34:41;;;;;;;2.40;1.27;;;14.10;99.90;;;;;;4915930;29;20239;-61
2022/03/08 11:37:17;;;;;;;1.60;1.40;;;13.40;99.90;;;;;;4915812;29;20255;-60
2022/03/08 11:40:06;;;;;;;2.17;1.40;;;13.10;99.90;;;;;;4915079;29;20239;-62
2022/03/08 11:42:36;;;;;;;4.13;1.37;;;13.40;99.90;;;;;;4915028;29;20653;-61
2022/03/08 11:45:08;;;;;;;1.70;1.30;;;13.50;99.90;;;;;;4915157;29;20656;-61
2022/03/08 11:47:38;;;;;;;2.40;1.50;;;13.40;99.90;;;;;;4916027;29;20330;-61
2022/03/08 11:50:17;;;;;;;2.70;1.53;;;13.70;99.90;;;;;;4913152;29;20322;-61
2022/03/08 11:53:03;;;;;;;2.83;1.40;;;13.90;99.90;;;;;;4913748;29;20267;-62
2022/03/08 11:55:34;;;;;;;2.23;1.67;;;14.10;99.90;;;;;;4915781;29;20235;-59
2022/03/08 11:58:04;;;;;;;1.93;1.57;;;13.90;99.90;;;;;;4925336;29;20283;-61
2022/03/08 12:00:43;;;;;;;2.77;1.17;;;13.90;99.90;;;;;;4924867;29;20282;-61
2022/03/08 12:03:16;;;;;;;1.87;1.30;;;13.70;99.90;;;;;;4913552;29;20691;-61
2022/03/08 12:05:59;;;;;;;2.13;1.73;;;13.70;99.90;;;;;;4915360;29;20316;-61
2022/03/08 12:09:09;;;;;;;3.37;1.73;;;13.40;99.90;;;;;;4914018;29;20240;-61
2022/03/08 12:12:00;;;;;;;2.57;1.73;;;13.30;99.90;;;;;;4912673;29;20243;-61
2022/03/08 12:14:30;;;;;;;2.43;2.20;;;13.20;99.90;;;;;;4914732;29;20592;-61
2022/03/08 12:17:10;;;;;;;2.53;1.87;;;12.90;99.90;;;;;;4915649;29;20243;-61
2022/03/08 12:19:40;;;;;;;3.40;1.80;;;12.70;99.90;;;;;;4912539;29;20302;-61
2022/03/08 12:22:14;;;;;;;3.20;1.70;;;12.80;99.90;;;;;;4922129;29;20238;-61
2022/03/08 12:24:46;;;;;;;4.50;2.33;;;12.80;99.90;;;;;;4919857;29;20240;-61
2022/03/08 12:27:16;;;;;;;2.90;1.80;;;12.80;99.90;;;;;;4915567;29;20249;-61
2022/03/08 12:29:59;;;;;;;2.90;1.70;;;12.60;99.90;;;;;;4915131;29;20235;-61
2022/03/08 12:32:41;;;;;;;2.60;1.90;;;12.50;99.90;;;;;;4914998;29;20287;-61
2022/03/08 12:35:16;;;;;;;2.10;1.90;;;12.40;99.90;;;;;;4915175;29;20232;-60
2022/03/08 12:37:48;;;;;;;2.00;1.80;;;12.60;99.90;;;;;;4918670;29;20274;-60
2022/03/08 12:40:35;;;;;;;2.83;1.73;;;12.40;99.90;;;;;;4917519;29;20242;-61
2022/03/08 12:43:10;;;;;;;3.10;1.83;;;12.40;99.90;;;;;;4918882;29;20254;-60
2022/03/08 12:45:45;;;;;;;5.13;2.33;;;12.20;99.90;;;;;;4920225;29;20683;-61
2022/03/08 12:48:15;;;;;;;3.53;2.30;;;12.30;99.90;;;;;;4918733;29;20243;-61
2022/03/08 12:50:45;;;;;;;2.50;2.30;;;12.10;99.90;;;;;;4920606;29;20253;-61
2022/03/08 12:53:19;;;;;;;2.83;1.97;;;12.00;99.90;;;;;;4920552;29;20655;-60
2022/03/08 12:55:51;;;;;;;2.43;2.23;;;12.20;99.90;;;;;;4919563;29;20243;-61
2022/03/08 12:58:22;;;;;;;3.57;2.20;;;12.00;99.90;;;;;;4920679;29;20335;-61
2022/03/08 13:00:53;;;;;;;2.27;2.07;;;12.00;99.90;;;;;;4919581;29;20691;-60
2022/03/08 13:03:24;;;;;;;3.73;2.30;;;11.90;99.90;;;;;;4920646;29;20327;-61
2022/03/08 13:05:54;;;;;;;4.20;1.97;;;12.00;99.90;;;;;;4918489;29;20260;-61